This is the latest recevied weather packets stored in our database for station/object UB2FAY-13. If no packets are shown the sender has not sent any weather packets the latest 10 day(s).
| Time | Temp. | Humidity | Pressure | Rain* | Wind** | Luminosity | Snow |
|---|---|---|---|---|---|---|---|
| 1777610217 | 14.44° C | 61% | 1026.8 hPa | 0 mm | - | - | - |
| 1777609618 | 13.89° C | 61% | 1026.6 hPa | 0 mm | - | - | - |
| 1777609066 | 13.89° C | 62% | 1026.6 hPa | 0 mm | - | - | - |
| 1777609021 | 13.89° C | 62% | 1026.6 hPa | 0 mm | - | - | - |
| 1777608418 | 13.89° C | 62% | 1026.7 hPa | 0 mm | - | - | - |
| 1777607817 | 13.33° C | 65% | 1026.6 hPa | 0 mm | - | - | - |
| 1777607217 | 12.22° C | 67% | 1026.6 hPa | 0 mm | - | - | - |
| 1777606651 | 11.67° C | 69% | 1026.6 hPa | 0 mm | - | - | - |
| 1777606617 | 11.67° C | 69% | 1026.6 hPa | 0 mm | - | - | - |
| 1777606022 | 10.56° C | 69% | 1026.6 hPa | 0 mm | - | - | - |
| 1777605417 | 10.56° C | 69% | 1026.6 hPa | 0 mm | - | - | - |
| 1777604889 | 10.56° C | 69% | 1026.6 hPa | 0 mm | - | - | - |
| 1777604817 | 10.56° C | 69% | 1026.6 hPa | 0 mm | - | - | - |
| 1777604217 | 10.56° C | 68% | 1026.4 hPa | 0 mm | - | - | - |
| 1777603617 | 10.56° C | 69% | 1026.5 hPa | 0 mm | - | - | - |
| 1777603021 | 10.56° C | 68% | 1026.8 hPa | 0 mm | - | - | - |
| 1777602417 | 11.11° C | 69% | 1026.7 hPa | 0 mm | - | - | - |
| 1777601818 | 11.11° C | 68% | 1026.6 hPa | 0 mm | - | - | - |
| 1777600618 | 11.11° C | 68% | 1026.7 hPa | 0 mm | - | - | - |
| 1777587418 | 11.11° C | 71% | 1026.9 hPa | 0 mm | - | - | - |
| 1777585018 | 11.67° C | 71% | 1026.6 hPa | 0 mm | - | - | - |
| 1777583818 | 10.56° C | 72% | 1026.7 hPa | 0 mm | - | - | - |
| 1777583218 | 11.11° C | 72% | 1026.8 hPa | 0 mm | - | - | - |
| 1777581418 | 8.89° C | 73% | 1026.8 hPa | 0 mm | - | - | - |
| 1777580218 | 10.56° C | 69% | 1026.9 hPa | 0 mm | - | - | - |
* Rain latest hour (hover to see other rain measurements)
** Current wind speed in m/s (hover to see current wind gust speed)